Tuesday, May 24, 2016
21:36 UTC
  |  Log In   |  Register Free
Airport Search:

Faribault Municipal Airport
(KFBL)

Faribault Municipal Airport Diagram
No Airport Diagram Available

FAA data valid effective Mar 31 2016 - May 26 2016 (unless otherwise noted).

 
 
 
 
 
 
 
 
 
 
 
 
 
 
Current Aviation Weather for KFBL

Weather Summary


The most recent METAR observation for FBL was updated at: 12:54 UTC
METAR for KFBL is not available. Closest METAR is for KOWA
KFBL  (most recent observation was updatred at 24:21 UTC)
242109Z AUTO 17006KT 10SM CLR 29/12 A2989 RMK AO2

KOWA  (12.5 nm NW)   (most recent observation was updated at 24:21 UTC)
242115Z AUTO 16009G15KT 10SM SCT075 28/11 A2990 RMK AO2

KSYN  (15.5 nm SW)   (most recent observation was updated at 24:21 UTC)
242116Z AUTO 24006KT 10SM SCT070 SCT095 29/11 A2987 RMK AO2 T02880108

TAF for KFBL is not available.
KMSP  (33.5 nm SW)   (most recent observation was updatred at 24:21 UTC)
AMD 242102Z 2421/2524 29008KT P6SM SCT050 BKN250 FM250100 19006KT P6SM SCT250 FM250500 14004KT P6SM SCT100 BKN250 FM251400 11010KT 5SM -SHRA BR VCTS SCT025 OVC050CB FM251900 13011KT P6SM OVC100


GlobalAir.com is loading additional information.
 Current Weather at FBL
84.0 F° (29.0 C°)

South winds at 4.6 mph
Pressure:
29.89 in
Humidity:
40%
Wind:
South at 4.6 mph
Dew Point:
57.2 F° (14.0 C°)
Visibility:
10.00 mi
FBL NOAA Radar




Find All Airport Services Find A Hotel Find A Rental Car Find A Golf Course Find A Restaurant $100 Hamburger



Airport Weather Forecast for KFBL

Translated METAR for KFBL (2109 UTC)
METAR:
KFBL 242109Z AUTO 17006KT 10SM CLR 29/12 A2989 RMK AO2
Conditions at:
KFBL (Faribault Muni, MN) observed 2109 UTC 24 May 2016
Temperature:
29°C (84.2°F)
Dewpoint:
12°C (53.6°F) [RH = 35]
Pressure:
29.89 inches Hg (1012.2 mb)
Winds:
from the S (170 degrees) at 6.9 mph (6 knots: 3.1 m/s)
Visibility:
10 mile(s)
Ceiling:
at least 12,000 feet AGL
Clouds:
Clear below 12,000 feet AGL
Remarks:
site is un-manned
site is automated and HAS a precipitation sensor

Translated TAF for KMSP (Minneapolis-St Paul Intl/Wold-Chamberlain, MN) (2102 UTC)
TAF text:
KMSP 242102Z 2421/2524 29008KT P6SM SCT050 BKN250
Forecast period:
Tuesday May 24 2016 21:00 UTC - Wednesday May 25 2016 24:00 UTC
Forecast type:
FROM: standard forecast or significant change
Winds:
from the WNW (290 degrees) at 9.2 mph (8 knots: 4.1 m/s)
Visibility:
6 or more mile(s) (9.7+ km)
Ceiling:
25,000 feet AGL
Clouds:
Scattered Clouds at 5,000 feet AGL
Broken Cloud Cover at 25,000 feet AGL
Weather:
no significant weather observed at this time
TAF text:
FM250100 19006KT P6SM SCT250
Forecast period:
Wednesday May 25 2016 01:00 UTC - Wednesday May 25 2016 05:00 UTC
Forecast type:
FROM: standard forecast or significant change
Winds:
from the S (190 degrees) at 6.9 mph (6 knots: 3.1 m/s)
Visibility:
6 or more mile(s) (9.7+ km)
Ceiling:
at least 12,000 feet AGL
Clouds:
Scattered Clouds at 25,000 feet AGL
Weather:
no significant weather observed at this time
TAF text:
FM250500 14004KT P6SM SCT100 BKN250
Forecast period:
Wednesday May 25 2016 05:00 UTC - Wednesday May 25 2016 14:00 UTC
Forecast type:
FROM: standard forecast or significant change
Winds:
from the SE (140 degrees) at 4.6 mph (4 knots: 2.1 m/s)
Visibility:
6 or more mile(s) (9.7+ km)
Ceiling:
25,000 feet AGL
Clouds:
Scattered Clouds at 10,000 feet AGL
Broken Cloud Cover at 25,000 feet AGL
Weather:
no significant weather observed at this time
TAF text:
FM251400 11010KT 5SM -SHRA BR VCTS SCT025 OVC050CB
Forecast period:
Wednesday May 25 2016 14:00 UTC - Wednesday May 25 2016 19:00 UTC
Forecast type:
FROM: standard forecast or significant change
Winds:
from the ESE (110 degrees) at 11.5 mph (10 knots: 5.1 m/s)
Visibility:
5 mile(s) (8 km)
Ceiling:
at least 12,000 feet AGL
Clouds:
Scattered Clouds at 2,500 feet AGL
Overcast Skies
Weather:
Light Shower(s) Rain
TAF text:
FM251900 13011KT P6SM OVC100
Forecast period:
Wednesday May 25 2016 19:00 UTC - Wednesday May 25 2016 24:00 UTC
Forecast type:
FROM: standard forecast or significant change
Winds:
from the SE (130 degrees) at 12.7 mph (11 knots: 5.7 m/s)
Visibility:
6 or more mile(s) (9.7+ km)
Ceiling:
10,000 feet AGL
Clouds:
Overcast Skies at 10,000 feet AGL
Weather:
no significant weather observed at this time
FBO's on the Field
FBO Company Facility Photos Services Transportation Aviation Fuel Prices: Prices include tax
Catering Weather Repair Courtesy Rental Type 100LL JetA JetA+ MOGAS 8087
 
Quality Aviation

This FBO has not yet been rated
FS:Independent
Last Updated: May-02
Login to update fuel prices
SS:
Contact Quality AviationMore FBO Information
 
Add another FBO Facility Photos Catering Weather Repair Courtesy Rental Type 100LL JetA JetA+ MOGAS 8087
Services Transportation Aviation Fuel Prices: Prices include tax


model-print
model-print
model-print
model-print